Time;durP1;ratioP1;P1;durP2;ratioP2;P2;SDS_P1;SDS_P2;PMS_P1;PMS_P2;Temp;Humidity;BMP_temperature;BMP_pressure;BME280_temperature;BME280_humidity;BME280_pressure;Samples;Min_cycle;Max_cycle;Signal;HPM_P1;HPM_P2
2022/05/09 00:00:21;;;;;;;24.20;5.20;;;7.00;99.90;;;;;;5000694;28;20050;-69
2022/05/09 00:02:49;;;;;;;20.90;4.85;;;6.90;99.90;;;;;;4984977;28;20077;-68
2022/05/09 00:05:20;;;;;;;16.75;4.80;;;6.90;99.90;;;;;;4989280;28;20042;-68
2022/05/09 00:07:46;;;;;;;19.25;4.72;;;6.90;99.90;;;;;;4990740;28;20046;-68
2022/05/09 00:10:17;;;;;;;18.50;4.95;;;6.90;99.90;;;;;;4986904;28;20046;-68
2022/05/09 00:12:43;;;;;;;19.70;5.78;;;6.90;99.90;;;;;;4989885;28;20038;-67
2022/05/09 00:15:09;;;;;;;18.63;5.10;;;6.80;99.90;;;;;;4990441;28;20069;-68
2022/05/09 00:17:35;;;;;;;20.30;5.25;;;6.80;99.90;;;;;;4989778;28;20043;-68
2022/05/09 00:20:00;;;;;;;20.75;4.75;;;6.80;99.90;;;;;;4990045;28;20400;-68
2022/05/09 00:22:26;;;;;;;18.38;5.20;;;6.80;99.90;;;;;;4989584;28;20054;-68
2022/05/09 00:24:52;;;;;;;16.95;4.78;;;6.70;99.90;;;;;;4989439;28;20039;-68
2022/05/09 00:27:17;;;;;;;28.33;5.60;;;6.80;99.90;;;;;;4989870;28;20084;-67
2022/05/09 00:29:43;;;;;;;16.83;5.15;;;6.80;99.90;;;;;;4987416;28;20046;-67
2022/05/09 00:32:09;;;;;;;20.48;5.43;;;6.80;99.90;;;;;;4989184;28;20756;-68
2022/05/09 00:34:37;;;;;;;20.85;6.05;;;6.80;99.90;;;;;;4988251;28;20038;-68
2022/05/09 00:37:04;;;;;;;22.90;5.38;;;6.80;99.90;;;;;;4989067;28;20046;-68
2022/05/09 00:39:29;;;;;;;20.40;5.43;;;6.80;99.90;;;;;;4982419;28;20034;-69
2022/05/09 00:42:12;;;;;;;17.05;4.70;;;6.70;99.90;;;;;;4984051;28;20050;-68
2022/05/09 00:44:40;;;;;;;25.45;5.35;;;6.80;99.90;;;;;;4990668;28;20034;-67
2022/05/09 00:47:05;;;;;;;22.92;4.30;;;7.20;99.90;;;;;;4989397;28;20077;-67
2022/05/09 00:49:40;;;;;;;28.75;6.10;;;6.80;99.90;;;;;;4977492;28;20523;-68
2022/05/09 00:52:19;;;;;;;21.88;4.70;;;6.80;99.90;;;;;;4991579;28;20069;-68
2022/05/09 00:54:56;;;;;;;26.85;5.95;;;6.80;99.90;;;;;;4999033;28;20108;-68
2022/05/09 00:57:47;;;;;;;25.77;6.18;;;6.80;99.90;;;;;;4992884;28;20118;-68
2022/05/09 01:00:17;;;;;;;21.05;5.13;;;6.80;99.90;;;;;;4992066;28;20050;-68
2022/05/09 01:02:46;;;;;;;25.35;4.88;;;6.80;99.90;;;;;;4995642;28;20038;-68
2022/05/09 01:05:15;;;;;;;20.63;4.75;;;6.80;99.90;;;;;;4992521;28;20042;-68
2022/05/09 01:07:43;;;;;;;33.78;6.07;;;6.90;99.90;;;;;;4993435;28;20507;-68
2022/05/09 01:10:11;;;;;;;19.98;5.80;;;6.80;99.90;;;;;;4996204;28;20046;-69
2022/05/09 01:12:40;;;;;;;27.35;5.90;;;6.90;99.90;;;;;;4991375;28;20448;-68
2022/05/09 01:15:10;;;;;;;23.80;5.50;;;6.80;99.90;;;;;;4993096;28;20432;-68
2022/05/09 01:17:39;;;;;;;21.73;5.45;;;6.80;99.90;;;;;;4994581;28;20050;-68
2022/05/09 01:20:07;;;;;;;18.35;5.07;;;7.20;99.90;;;;;;4987589;28;20054;-67
2022/05/09 01:22:34;;;;;;;19.73;5.78;;;6.80;99.90;;;;;;4990130;28;20041;-68
2022/05/09 01:25:03;;;;;;;28.52;6.70;;;7.00;99.90;;;;;;4980710;28;20101;-67
2022/05/09 01:27:41;;;;;;;21.30;5.57;;;6.80;99.90;;;;;;4992807;28;20050;-67
2022/05/09 01:30:10;;;;;;;26.75;5.70;;;6.80;99.90;;;;;;4992527;28;20108;-68
2022/05/09 01:32:58;;;;;;;23.20;5.15;;;6.80;99.90;;;;;;4992837;28;20065;-67
2022/05/09 01:35:28;;;;;;;22.40;6.00;;;6.80;99.90;;;;;;4993039;28;20124;-69
2022/05/09 01:38:18;;;;;;;18.13;5.38;;;6.80;99.90;;;;;;4993584;28;20097;-68
2022/05/09 01:40:44;;;;;;;16.25;4.95;;;6.80;99.90;;;;;;4991717;28;20693;-68
2022/05/09 01:43:10;;;;;;;28.88;5.68;;;6.80;99.90;;;;;;4992893;28;20054;-68
2022/05/09 01:45:36;;;;;;;19.05;4.93;;;6.80;99.90;;;;;;4991362;28;20046;-67
2022/05/09 01:50:47;;;;;;;21.38;4.78;;;6.80;99.90;;;;;;4993123;28;20060;-68
2022/05/09 01:53:12;;;;;;;20.60;5.70;;;6.70;99.90;;;;;;4986273;28;20392;-67
2022/05/09 01:55:38;;;;;;;17.40;4.82;;;6.70;99.90;;;;;;4982127;28;20042;-68
2022/05/09 01:58:05;;;;;;;13.88;4.35;;;6.70;99.90;;;;;;4997769;28;20437;-67
2022/05/09 02:00:32;;;;;;;26.02;5.75;;;6.70;99.90;;;;;;4988875;28;20069;-68
2022/05/09 02:02:59;;;;;;;22.65;4.85;;;6.60;99.90;;;;;;4989531;28;20104;-68
2022/05/09 02:05:26;;;;;;;27.17;6.03;;;8.00;99.90;;;;;;4987337;28;20043;-68
2022/05/09 02:07:53;;;;;;;18.63;5.03;;;6.60;99.90;;;;;;4991061;28;20508;-68
2022/05/09 02:10:20;;;;;;;21.23;4.78;;;6.60;99.90;;;;;;4992517;28;20049;-68
2022/05/09 02:12:45;;;;;;;21.73;5.22;;;6.60;99.90;;;;;;4988702;28;20433;-68
2022/05/09 02:15:11;;;;;;;20.85;6.18;;;6.60;99.90;;;;;;4988986;28;20085;-68
2022/05/09 02:17:37;;;;;;;25.90;5.55;;;6.50;99.90;;;;;;4991069;28;20125;-68
2022/05/09 02:20:04;;;;;;;17.52;5.70;;;6.50;99.90;;;;;;4989832;28;20044;-68
2022/05/09 02:22:31;;;;;;;18.20;5.60;;;6.50;99.90;;;;;;4983489;28;20046;-70
2022/05/09 02:24:57;;;;;;;28.48;6.60;;;6.40;99.90;;;;;;4990287;28;20087;-68
2022/05/09 02:27:24;;;;;;;18.75;5.15;;;6.40;99.90;;;;;;4994552;28;20503;-68
2022/05/09 02:29:50;;;;;;;21.33;5.22;;;6.40;99.90;;;;;;4989713;28;20046;-67
2022/05/09 02:32:16;;;;;;;24.92;6.18;;;6.40;99.90;;;;;;4989886;28;20073;-68
2022/05/09 02:34:43;;;;;;;26.60;5.82;;;6.30;99.90;;;;;;4989941;28;20510;-68
2022/05/09 02:37:08;;;;;;;19.83;5.43;;;6.50;99.90;;;;;;4995842;28;20050;-67
2022/05/09 02:39:36;;;;;;;21.13;5.88;;;6.30;99.90;;;;;;4972768;28;20046;-68
2022/05/09 02:42:02;;;;;;;20.98;5.75;;;6.20;99.90;;;;;;4995561;28;20046;-68
2022/05/09 02:44:28;;;;;;;20.38;5.68;;;6.20;99.90;;;;;;4990626;28;20049;-68
2022/05/09 02:46:54;;;;;;;18.35;5.03;;;6.30;99.90;;;;;;4988142;28;20049;-67
2022/05/09 02:49:20;;;;;;;20.65;5.55;;;6.20;99.90;;;;;;4990642;28;20105;-67
2022/05/09 02:51:48;;;;;;;16.05;5.43;;;6.20;99.90;;;;;;4993196;28;20041;-69
2022/05/09 02:54:14;;;;;;;15.50;5.55;;;6.20;99.90;;;;;;4987031;28;20053;-68
2022/05/09 02:56:40;;;;;;;17.67;5.18;;;6.20;99.90;;;;;;4992242;28;20046;-68
2022/05/09 02:59:06;;;;;;;16.83;5.65;;;6.20;99.90;;;;;;4990733;28;20114;-69
2022/05/09 03:01:32;;;;;;;14.35;5.10;;;6.10;99.90;;;;;;4986741;28;20128;-66
2022/05/09 03:06:45;;;;;;;22.48;6.13;;;6.20;99.90;;;;;;4977620;28;20063;-68
2022/05/09 03:09:13;;;;;;;22.88;6.13;;;6.10;99.90;;;;;;4987085;28;20105;-68
2022/05/09 03:11:42;;;;;;;22.17;5.40;;;6.10;99.90;;;;;;4993924;28;20050;-68
2022/05/09 03:14:08;;;;;;;17.05;5.43;;;6.10;99.90;;;;;;4983931;28;20050;-68
2022/05/09 03:16:34;;;;;;;15.07;5.20;;;6.10;99.90;;;;;;4986345;28;20042;-67
2022/05/09 03:19:00;;;;;;;25.77;5.85;;;6.10;99.90;;;;;;4989108;28;20133;-68
2022/05/09 03:21:27;;;;;;;16.52;5.45;;;6.10;99.90;;;;;;4990378;28;20352;-68
2022/05/09 03:23:52;;;;;;;23.73;6.30;;;6.00;99.90;;;;;;4987605;28;20042;-68
2022/05/09 03:26:19;;;;;;;19.95;6.13;;;6.00;99.90;;;;;;4989382;28;20042;-68
2022/05/09 03:28:44;;;;;;;21.23;6.03;;;6.00;99.90;;;;;;4988924;28;20400;-67
2022/05/09 03:31:12;;;;;;;18.40;5.72;;;6.10;99.90;;;;;;4990701;28;20073;-68
2022/05/09 03:33:40;;;;;;;22.50;5.70;;;6.10;99.90;;;;;;4993771;28;20080;-67
2022/05/09 03:36:08;;;;;;;21.85;5.10;;;6.10;99.90;;;;;;4998249;28;20473;-68
2022/05/09 03:38:34;;;;;;;24.92;6.05;;;6.10;99.90;;;;;;4990294;28;20042;-68
2022/05/09 03:41:02;;;;;;;12.60;6.05;;;6.00;99.90;;;;;;4983455;28;20045;-68
2022/05/09 03:43:28;;;;;;;19.95;6.03;;;6.10;99.90;;;;;;4992738;28;20092;-68
2022/05/09 03:45:55;;;;;;;21.42;6.25;;;6.10;99.90;;;;;;4991549;28;20436;-68
2022/05/09 03:48:21;;;;;;;14.55;5.63;;;6.00;99.90;;;;;;4985698;28;20050;-67
2022/05/09 03:50:46;;;;;;;26.00;5.95;;;6.10;99.90;;;;;;4996664;28;20524;-69
2022/05/09 03:53:12;;;;;;;16.25;5.57;;;6.00;99.90;;;;;;4989658;28;20042;-68
2022/05/09 03:55:38;;;;;;;20.05;5.10;;;6.00;99.90;;;;;;4988424;28;20395;-67
2022/05/09 03:58:04;;;;;;;20.38;5.90;;;6.00;99.90;;;;;;4998740;28;20504;-68
2022/05/09 04:00:33;;;;;;;15.98;5.28;;;6.00;99.90;;;;;;4981645;28;20054;-67
2022/05/09 04:02:59;;;;;;;12.98;5.75;;;6.00;99.90;;;;;;4986336;28;20038;-67
2022/05/09 04:05:30;;;;;;;22.02;6.00;;;6.40;99.90;;;;;;4991840;28;20049;-68
2022/05/09 04:07:57;;;;;;;22.52;5.82;;;6.00;99.90;;;;;;4989890;28;20404;-68
2022/05/09 04:10:31;;;;;;;18.75;6.07;;;6.00;99.90;;;;;;4987848;28;20049;-68
2022/05/09 04:12:57;;;;;;;15.30;5.43;;;6.00;99.90;;;;;;4990393;28;20046;-67
2022/05/09 04:18:09;;;;;;;17.85;5.53;;;6.00;99.90;;;;;;4990456;28;20065;-68
2022/05/09 04:20:35;;;;;;;18.30;5.07;;;6.00;99.90;;;;;;4989337;28;20046;-67
2022/05/09 04:23:01;;;;;;;14.63;5.75;;;6.00;99.90;;;;;;4994226;28;20065;-67
2022/05/09 04:25:31;;;;;;;23.70;6.57;;;6.10;99.90;;;;;;4994353;28;20440;-67
2022/05/09 04:28:02;;;;;;;15.60;5.90;;;6.10;99.90;;;;;;4988985;28;20039;-67
2022/05/09 04:30:29;;;;;;;12.77;5.57;;;6.00;99.90;;;;;;4990184;28;20042;-68
2022/05/09 04:32:54;;;;;;;17.58;6.70;;;6.10;99.90;;;;;;5001450;28;20042;-68
2022/05/09 04:35:21;;;;;;;11.52;5.47;;;6.10;99.90;;;;;;4997783;28;20046;-67
2022/05/09 04:37:49;;;;;;;16.58;6.22;;;6.10;99.90;;;;;;4984532;28;20055;-68
2022/05/09 04:40:21;;;;;;;18.38;6.65;;;6.10;99.90;;;;;;4996744;28;20042;-69
2022/05/09 04:42:47;;;;;;;19.20;5.68;;;6.00;99.90;;;;;;4995439;28;20051;-69
2022/05/09 04:45:14;;;;;;;18.52;6.30;;;6.20;99.90;;;;;;4976151;28;20508;-67
2022/05/09 04:47:41;;;;;;;12.63;5.63;;;6.20;99.90;;;;;;5003372;28;20073;-68
2022/05/09 04:50:09;;;;;;;15.38;6.07;;;6.20;99.90;;;;;;4983252;28;20045;-67
2022/05/09 04:52:35;;;;;;;16.52;7.10;;;6.20;99.90;;;;;;4987522;28;20536;-68
2022/05/09 04:55:01;;;;;;;14.90;7.28;;;6.30;99.90;;;;;;4985072;28;20652;-68
2022/05/09 04:57:30;;;;;;;17.88;5.90;;;6.30;99.90;;;;;;4975158;28;20089;-68
2022/05/09 04:59:57;;;;;;;16.30;7.07;;;6.30;99.90;;;;;;4988904;28;20620;-68
2022/05/09 05:02:23;;;;;;;20.13;7.47;;;6.40;99.90;;;;;;4990251;28;20104;-69
2022/05/09 05:04:48;;;;;;;20.50;8.15;;;6.50;99.90;;;;;;4987562;28;20484;-68
2022/05/09 05:07:14;;;;;;;15.82;7.75;;;6.50;99.90;;;;;;4994027;28;20097;-69
2022/05/09 05:09:40;;;;;;;14.63;7.82;;;6.60;99.90;;;;;;4989849;28;20487;-69
2022/05/09 05:12:06;;;;;;;28.15;8.27;;;6.70;99.90;;;;;;4993399;28;20034;-68
2022/05/09 05:14:31;;;;;;;24.73;8.50;;;6.80;99.90;;;;;;4992517;28;20465;-68
2022/05/09 05:17:00;;;;;;;18.55;8.05;;;7.00;99.90;;;;;;4992329;28;20042;-70
2022/05/09 05:19:34;;;;;;;;;;;7.10;99.90;;;;;;4982531;28;20049;-68
2022/05/09 05:22:01;;;;;;;22.35;7.88;;;7.20;99.90;;;;;;4995166;28;19922;-69
2022/05/09 05:24:27;;;;;;;20.97;7.83;;;7.30;99.90;;;;;;4993175;28;20058;-69
2022/05/09 05:26:54;;;;;;;17.10;6.90;;;7.40;99.90;;;;;;4990911;28;20775;-69
2022/05/09 05:29:22;;;;;;;23.25;7.47;;;7.50;99.90;;;;;;4987806;28;20112;-70
2022/05/09 05:31:47;;;;;;;25.88;8.05;;;7.70;99.90;;;;;;4990988;28;20061;-69
2022/05/09 05:34:13;;;;;;;20.90;7.53;;;7.80;99.90;;;;;;4994258;28;20052;-69
2022/05/09 05:36:39;;;;;;;22.35;7.43;;;8.00;99.90;;;;;;4994302;28;20062;-70
2022/05/09 05:39:04;;;;;;;19.92;6.82;;;9.40;99.90;;;;;;4994651;28;20046;-69
2022/05/09 05:41:33;;;;;;;21.88;6.93;;;8.30;99.90;;;;;;4994372;28;20030;-72
2022/05/09 05:43:59;;;;;;;20.65;6.20;;;8.50;99.90;;;;;;4994467;28;20133;-67
2022/05/09 05:46:24;;;;;;;27.02;8.05;;;8.60;99.90;;;;;;4994666;28;20129;-69
2022/05/09 05:48:50;;;;;;;25.77;7.38;;;8.70;99.90;;;;;;4989798;28;20053;-67
2022/05/09 05:51:18;;;;;;;30.35;7.75;;;8.80;99.90;;;;;;4996161;28;20045;-68
2022/05/09 05:53:45;;;;;;;25.70;7.00;;;8.90;99.90;;;;;;4996299;28;20050;-68
2022/05/09 05:56:11;;;;;;;19.92;7.03;;;9.10;99.90;;;;;;4994345;28;20125;-68
2022/05/09 05:58:37;;;;;;;21.60;6.82;;;9.30;99.90;;;;;;4983699;28;20093;-69
2022/05/09 06:01:03;;;;;;;20.15;6.88;;;9.40;99.90;;;;;;4987409;28;20046;-70
2022/05/09 06:03:28;;;;;;;22.40;6.75;;;9.60;99.90;;;;;;4986622;28;20384;-69
2022/05/09 06:05:54;;;;;;;19.77;6.32;;;9.60;99.90;;;;;;4990706;28;20484;-67
2022/05/09 06:08:20;;;;;;;24.00;6.97;;;9.90;99.90;;;;;;4985266;28;20054;-68
2022/05/09 06:10:47;;;;;;;20.23;7.50;;;9.70;99.90;;;;;;4988450;28;20424;-69
2022/05/09 06:13:13;;;;;;;25.23;6.32;;;9.80;99.90;;;;;;4981519;28;20432;-69
2022/05/09 06:15:41;;;;;;;20.10;6.25;;;9.90;99.90;;;;;;4982677;28;20457;-68
2022/05/09 06:18:08;;;;;;;;;;;10.00;99.90;;;;;;4985837;28;20082;-70
2022/05/09 06:20:39;;;;;;;27.70;8.13;;;10.10;99.90;;;;;;4990729;28;19922;-69
2022/05/09 06:23:06;;;;;;;22.35;6.50;;;10.20;99.90;;;;;;4988426;28;20082;-69
2022/05/09 06:25:37;;;;;;;19.05;5.65;;;10.30;99.90;;;;;;4988858;28;20089;-69
2022/05/09 06:28:05;;;;;;;16.02;6.35;;;10.50;99.90;;;;;;4987049;28;20081;-69
2022/05/09 06:30:31;;;;;;;17.42;6.50;;;10.70;99.90;;;;;;4990644;28;20077;-69
2022/05/09 06:32:57;;;;;;;19.95;7.22;;;10.90;99.90;;;;;;5001252;28;20368;-69
2022/05/09 06:35:26;;;;;;;17.80;6.45;;;11.20;99.90;;;;;;4991370;28;20497;-69
2022/05/09 06:38:00;;;;;;;18.20;6.07;;;11.40;99.90;;;;;;4989366;28;20400;-69
2022/05/09 06:40:28;;;;;;;25.67;6.18;;;11.60;99.90;;;;;;4992886;28;20049;-69
2022/05/09 06:42:55;;;;;;;21.98;6.55;;;11.80;99.90;;;;;;4992368;28;20056;-70
2022/05/09 06:45:21;;;;;;;23.13;6.40;;;12.00;99.90;;;;;;4984621;28;20050;-69
2022/05/09 06:47:50;;;;;;;18.88;5.68;;;12.20;99.90;;;;;;4995885;28;20348;-69
2022/05/09 06:50:16;;;;;;;;;;;12.20;99.90;;;;;;4993435;28;20065;-69
2022/05/09 06:52:42;;;;;;;28.35;6.07;;;12.30;99.90;;;;;;4992784;28;19929;-69
2022/05/09 06:55:09;;;;;;;19.70;5.93;;;12.40;99.90;;;;;;4992493;28;20042;-68
2022/05/09 06:57:40;;;;;;;27.02;6.30;;;12.40;99.90;;;;;;4990609;28;20512;-69
2022/05/09 07:00:09;;;;;;;18.55;6.57;;;12.50;99.90;;;;;;4992574;28;20058;-69
2022/05/09 07:02:35;;;;;;;21.45;6.35;;;12.60;99.90;;;;;;5004390;28;20046;-68
2022/05/09 07:05:09;;;;;;;20.13;6.53;;;12.70;99.90;;;;;;4991108;28;20042;-69
2022/05/09 07:07:35;;;;;;;25.10;7.05;;;12.90;99.90;;;;;;4997397;28;20052;-67
2022/05/09 07:10:01;;;;;;;18.60;6.10;;;13.00;99.90;;;;;;4989991;28;20488;-69
2022/05/09 07:12:27;;;;;;;21.50;6.05;;;13.10;99.90;;;;;;4991910;28;20046;-69
2022/05/09 07:14:52;;;;;;;20.98;5.90;;;13.20;99.90;;;;;;4990279;28;20057;-68
2022/05/09 07:17:18;;;;;;;21.52;6.75;;;13.30;99.90;;;;;;4994033;28;20102;-69
2022/05/09 07:19:44;;;;;;;23.95;6.82;;;13.50;99.90;;;;;;4991978;28;20044;-68
2022/05/09 07:22:11;;;;;;;25.85;7.10;;;13.70;99.90;;;;;;4992367;28;20037;-70
2022/05/09 07:24:36;;;;;;;20.42;6.75;;;13.90;99.90;;;;;;4990828;28;20138;-69
2022/05/09 07:27:03;;;;;;;19.08;6.25;;;14.10;99.90;;;;;;4990099;28;20540;-68
2022/05/09 07:29:28;;;;;;;16.83;5.45;;;14.20;99.90;;;;;;5001897;28;20137;-68
2022/05/09 07:31:54;;;;;;;15.98;4.95;;;14.30;99.90;;;;;;4990004;28;20110;-69
2022/05/09 07:34:19;;;;;;;19.27;4.75;;;14.50;99.90;;;;;;4992865;28;20042;-70
2022/05/09 07:36:45;;;;;;;23.95;6.22;;;14.60;99.90;;;;;;4992606;28;20038;-67
2022/05/09 07:39:11;;;;;;;18.63;4.93;;;14.80;99.90;;;;;;5004983;28;20714;-69
2022/05/09 07:41:37;;;;;;;22.95;5.35;;;14.90;99.90;;;;;;4983287;28;20046;-69
2022/05/09 07:44:03;;;;;;;19.25;5.03;;;15.20;99.90;;;;;;4990874;28;20050;-69
2022/05/09 07:46:28;;;;;;;16.48;5.22;;;15.20;99.90;;;;;;4997325;28;20042;-69
2022/05/09 07:48:54;;;;;;;15.98;5.57;;;15.30;99.90;;;;;;4991915;28;20047;-68
2022/05/09 07:51:20;;;;;;;16.80;5.45;;;15.40;99.90;;;;;;5001425;28;20036;-69
2022/05/09 07:53:46;;;;;;;24.30;5.80;;;15.40;99.90;;;;;;5004932;28;20100;-68
2022/05/09 07:56:12;;;;;;;20.35;5.82;;;15.60;99.90;;;;;;5009879;28;20046;-69
2022/05/09 07:58:37;;;;;;;20.20;5.70;;;15.60;99.90;;;;;;4989475;28;20149;-69
2022/05/09 08:01:04;;;;;;;19.20;5.00;;;15.60;99.90;;;;;;4991671;28;20108;-69
2022/05/09 08:03:34;;;;;;;14.93;4.43;;;15.80;99.90;;;;;;4995251;28;20430;-68
2022/05/09 08:06:02;;;;;;;14.35;5.07;;;15.90;99.90;;;;;;4992477;28;20046;-69
2022/05/09 08:08:31;;;;;;;;;;;15.90;99.90;;;;;;4993731;28;20050;-68
2022/05/09 08:10:58;;;;;;;16.08;5.38;;;16.00;99.90;;;;;;4976958;28;19961;-68
2022/05/09 08:13:25;;;;;;;24.13;5.90;;;16.20;99.90;;;;;;4986001;28;20042;-68
2022/05/09 08:15:52;;;;;;;24.50;5.28;;;16.40;99.90;;;;;;4990433;28;20073;-69
2022/05/09 08:18:19;;;;;;;23.10;5.35;;;16.50;99.90;;;;;;4989882;28;20435;-69
2022/05/09 08:20:45;;;;;;;19.42;5.18;;;16.90;99.90;;;;;;4991126;28;20496;-68
2022/05/09 08:23:16;;;;;;;21.08;5.07;;;16.80;99.70;;;;;;4992645;28;20050;-68
2022/05/09 08:25:44;;;;;;;15.18;3.90;;;17.00;97.20;;;;;;4990950;28;20050;-68
2022/05/09 08:28:10;;;;;;;14.95;4.43;;;17.10;97.40;;;;;;4981570;28;20065;-69
2022/05/09 08:30:36;;;;;;;17.90;4.32;;;17.20;95.50;;;;;;4986406;28;20038;-69
2022/05/09 08:33:07;;;;;;;13.23;4.47;;;17.20;95.60;;;;;;4993677;28;20062;-68
2022/05/09 08:35:33;;;;;;;17.73;4.45;;;17.30;95.40;;;;;;4993311;28;20520;-68
2022/05/09 08:37:59;;;;;;;13.60;4.10;;;17.40;95.50;;;;;;4990865;28;20049;-68
2022/05/09 08:40:34;;;;;;;16.55;4.97;;;17.70;95.40;;;;;;4991630;28;20034;-70
2022/05/09 08:43:27;;;;;;;15.00;4.20;;;17.60;93.80;;;;;;4989678;28;20088;-69
2022/05/09 08:46:14;;;;;;;17.85;3.88;;;17.80;91.40;;;;;;4987748;28;20492;-69
2022/05/09 08:48:55;;;;;;;14.15;4.40;;;17.70;90.00;;;;;;4990682;28;20534;-69
2022/05/09 08:51:33;;;;;;;15.02;3.70;;;17.70;90.90;;;;;;4992464;28;20058;-69
2022/05/09 08:54:05;;;;;;;14.75;3.83;;;17.70;88.00;;;;;;4983564;28;20086;-69
2022/05/09 08:56:33;;;;;;;11.88;3.67;;;17.70;87.00;;;;;;4977982;28;20057;-67
2022/05/09 08:59:11;;;;;;;26.25;4.07;;;17.70;89.20;;;;;;4995786;28;20590;-69
2022/05/09 09:02:19;;;;;;;12.45;3.15;;;17.90;89.10;;;;;;4989761;28;20049;-69
2022/05/09 09:04:51;;;;;;;15.60;4.20;;;18.10;87.30;;;;;;4990481;28;20058;-69
2022/05/09 09:07:30;;;;;;;11.00;2.90;;;18.40;84.30;;;;;;4975390;28;20506;-69
2022/05/09 09:10:06;;;;;;;12.48;3.42;;;18.50;77.20;;;;;;4994731;28;20121;-69
2022/05/09 09:12:40;;;;;;;14.20;3.85;;;18.60;77.60;;;;;;4988236;28;20054;-70
2022/05/09 09:15:34;;;;;;;16.02;3.30;;;18.60;76.20;;;;;;4993813;28;20058;-69
2022/05/09 09:18:15;;;;;;;13.35;3.60;;;18.70;74.60;;;;;;5002943;28;20050;-69
2022/05/09 09:20:55;;;;;;;15.10;3.50;;;18.80;74.20;;;;;;4986799;28;20077;-68
2022/05/09 09:23:42;;;;;;;21.13;3.40;;;19.00;76.20;;;;;;4999664;28;20087;-68
2022/05/09 09:26:29;;;;;;;10.82;3.40;;;19.20;74.10;;;;;;4989544;28;20044;-69
2022/05/09 09:29:16;;;;;;;15.52;3.45;;;19.40;74.80;;;;;;4994080;28;20554;-69
2022/05/09 09:31:51;;;;;;;14.60;3.08;;;19.50;71.20;;;;;;5014688;28;20496;-68
2022/05/09 09:34:41;;;;;;;12.93;3.63;;;19.40;72.50;;;;;;4990084;28;20096;-68
2022/05/09 09:37:07;;;;;;;14.82;3.20;;;19.60;75.20;;;;;;4995338;28;20105;-68
2022/05/09 09:39:32;;;;;;;14.95;3.78;;;19.70;73.30;;;;;;4992411;28;20046;-69
2022/05/09 09:41:58;;;;;;;13.40;3.25;;;19.90;72.20;;;;;;4991056;28;20470;-68
2022/05/09 09:44:26;;;;;;;22.25;4.18;;;20.00;72.20;;;;;;4988941;28;20125;-68
2022/05/09 09:47:27;;;;;;;18.10;3.65;;;20.10;69.00;;;;;;4993204;28;20057;-69
2022/05/09 09:50:19;;;;;;;12.38;3.17;;;20.20;68.20;;;;;;5015119;28;20061;-69
2022/05/09 09:52:55;;;;;;;17.17;3.80;;;20.20;63.70;;;;;;4979909;28;20169;-69
2022/05/09 09:55:32;;;;;;;12.88;3.80;;;20.10;69.70;;;;;;5010393;28;20058;-68
2022/05/09 09:58:17;;;;;;;12.60;3.65;;;20.30;68.10;;;;;;4991778;28;20085;-68
2022/05/09 10:00:42;;;;;;;14.95;4.00;;;20.50;68.70;;;;;;5007213;28;20054;-67
2022/05/09 10:03:27;;;;;;;12.75;3.20;;;20.90;69.60;;;;;;4990252;28;20050;-69
2022/05/09 10:05:55;;;;;;;8.30;2.85;;;21.10;66.60;;;;;;5000723;28;20048;-68
2022/05/09 10:08:38;;;;;;;15.85;3.70;;;21.40;67.30;;;;;;5005559;28;20054;-70
2022/05/09 10:11:19;;;;;;;9.93;3.00;;;21.40;62.60;;;;;;4987575;28;20088;-68
2022/05/09 10:13:52;;;;;;;13.23;3.95;;;21.60;59.20;;;;;;4988527;28;20113;-69
2022/05/09 10:16:21;;;;;;;9.20;3.10;;;21.90;62.00;;;;;;4976646;28;20097;-68
2022/05/09 10:18:46;;;;;;;12.43;3.30;;;22.10;58.30;;;;;;4977655;28;20038;-69
2022/05/09 10:24:47;;;;;;;15.55;3.08;;;22.10;59.20;;;;;;4984422;28;20350;-68
2022/05/09 10:26:53;;;;;;;7.97;2.55;;;22.50;57.60;;;;;;4989573;28;20058;-68
2022/05/09 10:29:23;;;;;;;8.32;2.90;;;22.90;57.10;;;;;;4993832;28;20418;-69
2022/05/09 10:32:00;;;;;;;8.10;2.75;;;23.20;55.60;;;;;;4981099;28;20054;-67
2022/05/09 10:34:30;;;;;;;8.93;2.80;;;23.40;51.80;;;;;;4985950;28;20039;-69
2022/05/09 10:37:05;;;;;;;8.25;2.67;;;23.70;53.30;;;;;;4984946;28;20050;-69
2022/05/09 10:39:35;;;;;;;13.23;3.20;;;23.90;51.50;;;;;;4970194;28;20109;-68
2022/05/09 10:42:10;;;;;;;10.20;3.33;;;24.20;52.00;;;;;;4998838;28;20076;-68
2022/05/09 10:45:04;;;;;;;19.10;4.10;;;24.20;49.70;;;;;;4989255;28;20571;-67
2022/05/09 10:48:06;;;;;;;9.07;3.00;;;24.40;47.80;;;;;;4981994;28;20050;-67
2022/05/09 10:50:49;;;;;;;11.55;3.40;;;24.30;48.50;;;;;;4981377;28;20494;-67
2022/05/09 10:54:01;;;;;;;13.00;3.17;;;24.40;49.70;;;;;;4990333;28;20042;-69
2022/05/09 10:56:44;;;;;;;8.40;2.92;;;24.50;49.40;;;;;;4984913;28;20089;-69
2022/05/09 10:59:24;;;;;;;15.13;3.22;;;24.50;49.30;;;;;;4989210;28;20061;-68
2022/05/09 11:02:02;;;;;;;8.80;3.33;;;24.80;48.40;;;;;;4983386;28;20481;-69
2022/05/09 11:04:30;;;;;;;10.23;3.22;;;24.80;48.00;;;;;;4989746;28;20050;-69
2022/05/09 11:07:08;;;;;;;8.40;3.10;;;25.10;45.90;;;;;;4985131;28;20125;-68
2022/05/09 11:09:55;;;;;;;12.48;3.55;;;25.00;48.60;;;;;;4985053;28;20061;-68
2022/05/09 11:12:32;;;;;;;14.15;3.20;;;24.70;45.80;;;;;;4982403;28;20078;-67
2022/05/09 11:15:00;;;;;;;8.93;3.05;;;24.70;48.70;;;;;;4988620;28;20035;-69
2022/05/09 11:17:54;;;;;;;10.57;3.13;;;24.90;49.70;;;;;;4988461;28;20425;-68
2022/05/09 11:20:22;;;;;;;11.77;3.13;;;25.30;48.40;;;;;;4980799;28;20085;-68
2022/05/09 11:22:57;;;;;;;14.88;3.47;;;25.50;48.90;;;;;;4987027;28;20146;-68
2022/05/09 11:25:46;;;;;;;11.05;2.92;;;25.80;47.00;;;;;;4985153;28;20074;-69
2022/05/09 11:28:31;;;;;;;14.30;4.07;;;25.80;46.00;;;;;;4980935;28;20563;-68
2022/05/09 11:31:12;;;;;;;16.23;3.10;;;25.80;47.50;;;;;;4999498;28;20398;-68
2022/05/09 11:33:46;;;;;;;14.88;3.90;;;25.90;47.00;;;;;;4978434;28;20050;-69
2022/05/09 11:36:44;;;;;;;9.98;3.20;;;25.80;45.00;;;;;;4981233;28;20121;-69
2022/05/09 11:39:28;;;;;;;8.68;3.03;;;26.00;46.10;;;;;;5002274;28;20400;-69
2022/05/09 11:45:16;;;;;;;11.30;2.92;;;26.00;46.10;;;;;;4987783;28;20107;-69
2022/05/09 11:47:54;;;;;;;14.35;3.47;;;26.10;47.00;;;;;;5000056;28;20084;-69
2022/05/09 11:50:33;;;;;;;9.05;2.85;;;26.20;46.60;;;;;;4971574;28;20090;-68
2022/05/09 11:53:01;;;;;;;8.75;2.80;;;26.40;46.60;;;;;;4973914;28;20050;-68
2022/05/09 11:55:27;;;;;;;10.70;3.17;;;26.50;46.50;;;;;;4991910;28;20042;-68
2022/05/09 11:57:56;;;;;;;12.80;3.80;;;26.40;45.90;;;;;;4992098;28;20042;-68
2022/05/09 12:00:28;;;;;;;12.18;3.47;;;26.30;45.20;;;;;;4997403;28;20042;-68
2022/05/09 12:02:56;;;;;;;10.40;3.13;;;26.20;46.70;;;;;;4999523;28;20097;-67
2022/05/09 12:05:29;;;;;;;10.80;2.67;;;26.30;46.50;;;;;;4993292;28;20061;-68
2022/05/09 12:08:12;;;;;;;9.77;2.65;;;26.40;45.80;;;;;;4975171;28;20057;-68
2022/05/09 12:10:40;;;;;;;9.32;2.67;;;26.60;46.20;;;;;;4978321;28;20089;-68
2022/05/09 12:13:07;;;;;;;10.88;2.60;;;26.70;45.70;;;;;;4980301;28;20099;-68
2022/05/09 12:15:33;;;;;;;8.65;2.70;;;26.80;45.70;;;;;;4987578;28;20555;-68
2022/05/09 12:17:58;;;;;;;8.10;2.50;;;26.90;45.90;;;;;;4983211;28;20042;-68
2022/05/09 12:20:27;;;;;;;13.18;2.80;;;26.80;45.50;;;;;;4984865;28;20130;-68
2022/05/09 12:23:02;;;;;;;14.77;2.63;;;26.90;45.90;;;;;;4983806;28;20581;-68
2022/05/09 12:25:38;;;;;;;9.48;2.85;;;27.20;45.50;;;;;;4986847;28;20429;-68
2022/05/09 12:28:21;;;;;;;7.82;2.85;;;27.10;44.20;;;;;;4984342;28;20504;-68
2022/05/09 12:30:54;;;;;;;10.00;2.80;;;27.20;43.30;;;;;;4989893;28;20136;-68
2022/05/09 12:33:37;;;;;;;8.13;2.58;;;27.50;44.80;;;;;;4989360;28;20069;-69
2022/05/09 12:36:24;;;;;;;8.07;2.20;;;27.60;45.20;;;;;;4972693;28;20106;-68
2022/05/09 12:38:56;;;;;;;8.90;2.83;;;27.90;45.00;;;;;;4975422;28;20528;-68
2022/05/09 12:41:52;;;;;;;6.00;2.40;;;28.20;45.70;;;;;;4984143;28;20121;-69
2022/05/09 12:44:38;;;;;;;13.80;2.50;;;28.30;44.10;;;;;;4986049;28;20500;-69
2022/05/09 12:47:12;;;;;;;8.80;2.90;;;28.60;44.10;;;;;;4977665;28;20133;-68
2022/05/09 12:49:56;;;;;;;6.40;2.15;;;28.50;44.40;;;;;;4972797;28;20082;-69
2022/05/09 12:52:27;;;;;;;9.30;2.67;;;28.70;44.40;;;;;;4983502;28;20080;-67
2022/05/09 12:57:42;;;;;;;11.65;2.58;;;28.50;42.80;;;;;;4984992;28;20059;-69
2022/05/09 13:00:12;;;;;;;8.73;2.33;;;28.40;43.60;;;;;;4997663;28;20057;-69
2022/05/09 13:02:38;;;;;;;8.40;2.63;;;28.40;43.80;;;;;;5002637;28;20081;-70
2022/05/09 13:05:04;;;;;;;7.07;2.10;;;28.50;44.40;;;;;;4990796;28;20560;-70
2022/05/09 13:07:30;;;;;;;8.13;2.20;;;28.90;44.60;;;;;;4987244;28;20046;-69
2022/05/09 13:09:57;;;;;;;7.50;2.80;;;29.20;43.60;;;;;;4991057;28;20182;-69
2022/05/09 13:12:29;;;;;;;12.98;2.80;;;29.40;44.10;;;;;;4990158;28;20050;-69
2022/05/09 13:15:06;;;;;;;7.70;2.75;;;29.60;42.70;;;;;;4998079;28;20096;-68
2022/05/09 13:17:38;;;;;;;10.23;2.80;;;30.10;42.20;;;;;;4991189;28;20087;-69